createdAt,value
2022-11-24T00:00:22.393Z,17.25
2022-11-24T00:02:49.975Z,16.55
2022-11-24T00:05:17.303Z,16.67
2022-11-24T00:07:45.240Z,17.33
2022-11-24T00:10:12.552Z,19.75
2022-11-24T00:12:39.841Z,20.17
2022-11-24T00:15:07.610Z,20.75
2022-11-24T00:17:35.063Z,18.88
2022-11-24T00:20:02.451Z,19.35
2022-11-24T00:22:29.680Z,19.20
2022-11-24T00:24:56.932Z,18.98
2022-11-24T00:27:24.152Z,18.20
2022-11-24T00:29:51.501Z,20.08
2022-11-24T00:32:19.286Z,18.95
2022-11-24T00:34:47.263Z,17.33
2022-11-24T00:37:14.965Z,16.50
2022-11-24T00:39:43.140Z,15.10
2022-11-24T00:42:11.256Z,14.68
2022-11-24T00:44:38.726Z,16.20
2022-11-24T00:47:06.966Z,16.65
2022-11-24T00:49:36.115Z,16.35
2022-11-24T00:52:03.531Z,16.27
2022-11-24T00:54:33.348Z,17.00
2022-11-24T01:00:42.460Z,16.42
2022-11-24T01:03:09.959Z,17.75
2022-11-24T01:05:37.991Z,20.25
2022-11-24T01:08:25.305Z,17.15
2022-11-24T01:10:53.135Z,14.23
2022-11-24T01:17:24.459Z,15.45
2022-11-24T01:19:51.708Z,15.68
2022-11-24T01:22:18.935Z,16.15
2022-11-24T01:24:46.518Z,16.75
2022-11-24T01:27:14.351Z,17.17
2022-11-24T01:29:41.616Z,16.67
2022-11-24T01:32:09.310Z,16.10
2022-11-24T01:34:36.600Z,16.38
2022-11-24T01:37:04.027Z,16.98
2022-11-24T01:39:31.323Z,16.80
2022-11-24T01:42:01.547Z,16.63
2022-11-24T01:44:31.631Z,16.42
2022-11-24T01:47:22.211Z,16.85
2022-11-24T01:49:55.811Z,17.10
2022-11-24T01:52:30.153Z,17.25
2022-11-24T01:55:09.585Z,16.88
2022-11-24T01:57:42.612Z,18.02
2022-11-24T02:00:12.812Z,17.83
2022-11-24T02:02:45.267Z,18.02
2022-11-24T02:05:25.058Z,17.63
2022-11-24T02:07:56.028Z,16.65
2022-11-24T02:10:45.400Z,17.07
2022-11-24T02:13:14.772Z,17.98
2022-11-24T02:20:00.750Z,17.88
2022-11-24T02:22:40.078Z,18.65
2022-11-24T02:25:25.641Z,18.02
2022-11-24T02:27:54.632Z,18.52
2022-11-24T02:30:22.855Z,18.70
2022-11-24T02:32:50.737Z,18.48
2022-11-24T02:35:18.324Z,18.95
2022-11-24T02:37:45.800Z,19.15
2022-11-24T02:40:16.229Z,17.90
2022-11-24T02:42:46.496Z,20.05
2022-11-24T02:45:16.191Z,21.67
2022-11-24T02:47:43.903Z,20.65
2022-11-24T02:50:11.623Z,22.73
2022-11-24T02:52:38.923Z,21.42
2022-11-24T02:55:06.525Z,22.17
2022-11-24T02:57:33.783Z,21.27
2022-11-24T03:00:21.012Z,21.20
2022-11-24T03:02:48.467Z,20.38
2022-11-24T03:05:16.194Z,20.13
2022-11-24T03:07:43.831Z,20.50
2022-11-24T03:10:11.174Z,18.38
2022-11-24T03:12:38.439Z,20.45
2022-11-24T03:15:06.757Z,19.27
2022-11-24T03:17:34.000Z,20.92
2022-11-24T03:20:04.882Z,19.45
2022-11-24T03:22:34.663Z,19.35
2022-11-24T03:25:01.963Z,18.63
2022-11-24T03:27:30.734Z,18.42
2022-11-24T03:29:57.988Z,20.05
2022-11-24T03:32:25.521Z,18.75
2022-11-24T03:34:52.794Z,18.13
2022-11-24T03:37:20.082Z,17.80
2022-11-24T03:39:47.436Z,17.73
2022-11-24T03:42:14.806Z,18.40
2022-11-24T03:44:42.382Z,18.20
2022-11-24T03:47:11.483Z,18.23
2022-11-24T03:49:40.194Z,17.65
2022-11-24T03:52:08.452Z,18.17
2022-11-24T03:54:35.984Z,18.42
2022-11-24T03:57:03.589Z,17.98
2022-11-24T03:59:30.916Z,17.23
2022-11-24T04:01:58.651Z,17.30
2022-11-24T04:04:26.362Z,17.70
2022-11-24T04:06:53.596Z,17.85
2022-11-24T04:09:20.948Z,17.80
2022-11-24T04:12:06.855Z,17.67
2022-11-24T04:14:34.967Z,17.70
2022-11-24T04:17:04.254Z,17.80
2022-11-24T04:19:31.462Z,16.55
2022-11-24T04:21:58.731Z,17.80
2022-11-24T04:24:26.012Z,17.77
2022-11-24T04:26:53.274Z,17.92
2022-11-24T04:29:20.479Z,17.50
2022-11-24T04:31:48.749Z,17.30
2022-11-24T04:34:16.184Z,17.08
2022-11-24T04:36:43.587Z,18.15
2022-11-24T04:39:23.989Z,17.00
2022-11-24T04:41:54.751Z,18.58
2022-11-24T04:44:22.193Z,18.83
2022-11-24T04:46:49.543Z,18.38
2022-11-24T04:49:17.021Z,17.98
2022-11-24T04:51:44.323Z,17.13
2022-11-24T04:54:13.527Z,18.67
2022-11-24T04:56:42.625Z,18.15
2022-11-24T04:59:16.047Z,18.92
2022-11-24T05:01:45.082Z,17.20
2022-11-24T05:04:14.532Z,18.35
2022-11-24T05:06:42.499Z,17.50
2022-11-24T05:09:16.121Z,17.17
2022-11-24T05:11:45.375Z,18.77
2022-11-24T05:14:12.678Z,17.90
2022-11-24T05:16:40.694Z,18.98
2022-11-24T05:19:08.414Z,18.52
2022-11-24T05:21:36.387Z,18.33
2022-11-24T05:24:04.395Z,18.10
2022-11-24T05:26:31.666Z,17.48
2022-11-24T05:28:58.947Z,18.08
2022-11-24T05:35:09.649Z,17.95
2022-11-24T05:37:37.907Z,17.63
2022-11-24T05:40:06.903Z,17.48
2022-11-24T05:42:46.148Z,18.10
2022-11-24T05:45:20.099Z,17.75
2022-11-24T05:47:48.393Z,17.08
2022-11-24T05:50:17.863Z,18.27
2022-11-24T05:52:45.490Z,17.52
2022-11-24T05:55:14.977Z,18.08
2022-11-24T05:57:42.884Z,17.67
2022-11-24T06:00:11.926Z,18.33
2022-11-24T06:02:42.080Z,17.75
2022-11-24T06:05:09.518Z,20.55
2022-11-24T06:07:36.968Z,20.75
2022-11-24T06:10:04.881Z,19.20
2022-11-24T06:12:32.146Z,19.08
2022-11-24T06:14:59.453Z,17.95
2022-11-24T06:17:27.135Z,17.65
2022-11-24T06:19:54.409Z,17.30
2022-11-24T06:22:21.922Z,17.08
2022-11-24T06:24:50.631Z,17.55
2022-11-24T06:27:18.921Z,18.38
2022-11-24T06:29:46.224Z,16.77
2022-11-24T06:32:13.962Z,16.98
2022-11-24T06:34:42.463Z,16.80
2022-11-24T06:37:10.354Z,17.25
2022-11-24T06:39:37.623Z,15.85
2022-11-24T06:42:05.442Z,15.07
2022-11-24T06:44:32.962Z,16.55
2022-11-24T06:47:00.703Z,16.30
2022-11-24T06:53:10.188Z,17.00
2022-11-24T06:55:37.573Z,15.63
2022-11-24T06:58:05.479Z,15.52
2022-11-24T07:00:33.003Z,17.38
2022-11-24T07:03:00.844Z,17.95
2022-11-24T07:05:28.279Z,19.05
2022-11-24T07:07:55.778Z,19.10
2022-11-24T07:10:23.115Z,19.77
2022-11-24T07:12:52.487Z,24.35
2022-11-24T07:15:19.855Z,25.25
2022-11-24T07:17:47.683Z,28.23
2022-11-24T07:20:15.103Z,29.38
2022-11-24T07:22:42.852Z,29.63
2022-11-24T07:25:10.834Z,24.70
2022-11-24T07:27:38.125Z,25.35
2022-11-24T07:30:05.975Z,23.77
2022-11-24T07:32:33.354Z,30.98
2022-11-24T07:35:01.202Z,37.60
2022-11-24T07:37:31.593Z,32.88
2022-11-24T07:39:59.850Z,22.48
2022-11-24T07:42:27.678Z,34.00
2022-11-24T07:44:55.453Z,27.42
2022-11-24T07:47:23.115Z,19.73
2022-11-24T07:49:50.768Z,17.05
2022-11-24T07:52:18.202Z,16.13
2022-11-24T07:54:45.980Z,15.25
2022-11-24T07:57:13.374Z,17.05
2022-11-24T07:59:41.130Z,20.55
2022-11-24T08:02:12.058Z,16.27
2022-11-24T08:04:39.649Z,16.60
2022-11-24T08:07:07.414Z,17.00
2022-11-24T08:09:35.640Z,16.98
2022-11-24T08:12:03.377Z,16.90
2022-11-24T08:14:30.788Z,17.13
2022-11-24T08:17:18.508Z,16.63
2022-11-24T08:19:45.803Z,16.23
2022-11-24T08:22:13.056Z,17.33
2022-11-24T08:24:46.371Z,17.15
2022-11-24T08:27:15.753Z,16.95
2022-11-24T08:29:44.157Z,17.48
2022-11-24T08:32:17.422Z,17.40
2022-11-24T08:34:48.072Z,16.38
2022-11-24T08:37:15.371Z,17.05
2022-11-24T08:39:42.910Z,17.17
2022-11-24T08:42:10.663Z,15.98
2022-11-24T08:44:38.094Z,16.33
2022-11-24T08:47:05.476Z,15.77
2022-11-24T08:49:32.755Z,15.95
2022-11-24T08:52:00.426Z,15.02
2022-11-24T08:54:28.050Z,14.70
2022-11-24T08:56:55.683Z,15.45
2022-11-24T08:59:23.677Z,15.23
2022-11-24T09:01:50.994Z,16.38
2022-11-24T09:04:18.375Z,15.27
2022-11-24T09:06:45.624Z,14.55
2022-11-24T09:09:14.164Z,14.18
2022-11-24T09:11:42.180Z,16.20
2022-11-24T09:14:09.467Z,15.52
2022-11-24T09:16:36.894Z,15.63
2022-11-24T09:19:06.147Z,15.85
2022-11-24T09:21:37.662Z,14.70
2022-11-24T09:24:07.463Z,15.38
2022-11-24T09:26:37.233Z,15.32
2022-11-24T09:29:06.286Z,15.15
2022-11-24T09:31:36.342Z,15.20
2022-11-24T09:34:06.969Z,15.88
2022-11-24T09:36:35.662Z,15.35
2022-11-24T09:39:04.250Z,14.85
2022-11-24T09:41:57.590Z,16.45
2022-11-24T09:47:37.886Z,14.90
2022-11-24T09:50:26.186Z,14.05
2022-11-24T09:53:03.878Z,13.93
2022-11-24T09:55:45.086Z,14.35
2022-11-24T09:58:19.534Z,15.68
2022-11-24T10:00:50.550Z,13.40
2022-11-24T10:03:28.198Z,14.00
2022-11-24T10:05:55.983Z,13.35
2022-11-24T10:08:38.935Z,13.02
2022-11-24T10:11:13.581Z,13.25
2022-11-24T10:13:50.064Z,12.75
2022-11-24T10:16:23.571Z,13.02
2022-11-24T10:19:22.566Z,12.48
2022-11-24T10:22:26.166Z,13.00
2022-11-24T10:25:08.798Z,11.60
2022-11-24T10:28:02.146Z,11.93
2022-11-24T10:30:30.635Z,11.77
2022-11-24T10:33:08.153Z,12.30
2022-11-24T10:35:39.678Z,12.88
2022-11-24T10:38:45.267Z,12.68
2022-11-24T10:41:46.941Z,12.60
2022-11-24T10:44:15.029Z,12.95
2022-11-24T10:46:43.793Z,11.77
2022-11-24T10:49:20.622Z,12.38
2022-11-24T10:52:01.287Z,12.20
2022-11-24T10:54:29.298Z,12.05
2022-11-24T10:56:56.629Z,12.05
2022-11-24T10:59:38.729Z,11.43
2022-11-24T11:02:34.826Z,11.90
2022-11-24T11:05:44.675Z,12.45
2022-11-24T11:08:14.837Z,12.43
2022-11-24T11:10:44.039Z,13.55
2022-11-24T11:13:58.202Z,11.95
2022-11-24T11:16:53.470Z,14.20
2022-11-24T11:19:48.966Z,12.90
2022-11-24T11:22:27.038Z,13.32
2022-11-24T11:25:30.061Z,13.70
2022-11-24T11:28:56.213Z,15.63
2022-11-24T11:31:24.608Z,13.43
2022-11-24T11:34:25.219Z,16.38
2022-11-24T11:36:59.946Z,18.00
2022-11-24T11:39:32.407Z,12.85
2022-11-24T11:42:53.890Z,14.05
2022-11-24T11:45:17.407Z,14.25
2022-11-24T11:47:47.190Z,11.70
2022-11-24T11:50:18.121Z,10.68
2022-11-24T11:52:54.602Z,12.43
2022-11-24T11:55:43.954Z,12.50
2022-11-24T11:58:32.779Z,14.63
2022-11-24T12:01:04.272Z,11.80
2022-11-24T12:03:42.618Z,11.70
2022-11-24T12:06:32.010Z,13.73
2022-11-24T12:09:20.992Z,14.27
2022-11-24T12:12:00.820Z,11.80
2022-11-24T12:14:39.303Z,12.27
2022-11-24T12:17:13.498Z,13.18
2022-11-24T12:19:53.539Z,13.25
2022-11-24T12:22:20.802Z,12.85
2022-11-24T12:25:26.625Z,12.02
2022-11-24T12:28:14.679Z,12.13
2022-11-24T12:31:05.928Z,12.02
2022-11-24T12:34:10.141Z,12.75
2022-11-24T12:36:56.049Z,12.45
2022-11-24T12:39:52.533Z,16.77
2022-11-24T12:42:45.542Z,12.23
2022-11-24T12:45:16.825Z,13.48
2022-11-24T12:48:05.799Z,13.95
2022-11-24T12:50:38.736Z,11.75
2022-11-24T12:53:12.038Z,12.70
2022-11-24T12:55:41.170Z,12.07
2022-11-24T12:58:26.033Z,12.57
2022-11-24T13:01:29.841Z,12.50
2022-11-24T13:04:38.013Z,12.45
2022-11-24T13:07:20.548Z,11.48
2022-11-24T13:10:46.617Z,13.90
2022-11-24T13:13:16.792Z,10.25
2022-11-24T13:19:02.553Z,11.45
2022-11-24T13:21:51.628Z,11.43
2022-11-24T13:24:19.971Z,11.10
2022-11-24T13:26:49.063Z,11.25
2022-11-24T13:29:28.584Z,9.75
2022-11-24T13:32:17.560Z,9.63
2022-11-24T13:38:44.537Z,10.73
2022-11-24T13:41:33.096Z,10.95
2022-11-24T13:44:15.328Z,16.20
2022-11-24T13:47:06.043Z,12.35
2022-11-24T13:49:42.535Z,11.18
2022-11-24T13:52:34.742Z,10.40
2022-11-24T13:55:21.425Z,11.45
2022-11-24T13:57:50.594Z,11.55
2022-11-24T14:00:27.778Z,10.77
2022-11-24T14:03:01.160Z,9.20
2022-11-24T14:05:38.476Z,10.38
2022-11-24T14:08:13.888Z,9.95
2022-11-24T14:10:41.515Z,9.55
2022-11-24T14:13:26.014Z,10.30
2022-11-24T14:16:15.399Z,10.80
2022-11-24T14:18:45.640Z,8.93
2022-11-24T14:21:22.942Z,9.93
2022-11-24T14:24:14.807Z,10.50
2022-11-24T14:26:46.102Z,10.60
2022-11-24T14:29:20.433Z,10.02
2022-11-24T14:32:06.084Z,9.70
2022-11-24T14:34:36.519Z,10.52
2022-11-24T14:37:03.973Z,14.13
2022-11-24T14:39:41.487Z,12.07
2022-11-24T14:42:27.332Z,11.77
2022-11-24T14:45:03.782Z,12.00
2022-11-24T14:47:55.683Z,11.32
2022-11-24T14:50:23.617Z,10.70
2022-11-24T14:52:56.719Z,12.18
2022-11-24T14:55:25.824Z,11.95
2022-11-24T14:57:54.360Z,11.48
2022-11-24T15:00:24.707Z,12.18
2022-11-24T15:03:13.470Z,12.48
2022-11-24T15:05:59.425Z,11.70
2022-11-24T15:08:37.266Z,11.55
2022-11-24T15:11:06.936Z,11.65
2022-11-24T15:13:39.850Z,13.25
2022-11-24T15:19:06.764Z,13.63
2022-11-24T15:21:36.940Z,13.40
2022-11-24T15:24:06.610Z,13.90
2022-11-24T15:26:38.505Z,14.35
2022-11-24T15:29:07.519Z,14.48
2022-11-24T15:31:35.050Z,14.25
2022-11-24T15:34:02.420Z,14.73
2022-11-24T15:36:29.707Z,13.52
2022-11-24T15:38:57.519Z,14.40
2022-11-24T15:41:30.480Z,15.55
2022-11-24T15:44:37.948Z,15.68
2022-11-24T15:47:05.356Z,16.25
2022-11-24T15:49:32.627Z,17.20
2022-11-24T15:52:00.119Z,16.17
2022-11-24T15:54:29.532Z,17.65
2022-11-24T15:56:56.930Z,17.27
2022-11-24T15:59:24.162Z,16.88
2022-11-24T16:01:51.980Z,17.10
2022-11-24T16:04:19.420Z,17.92
2022-11-24T16:06:46.772Z,17.17
2022-11-24T16:09:16.029Z,17.80
2022-11-24T16:11:43.303Z,17.15
2022-11-24T16:14:10.723Z,17.80
2022-11-24T16:16:40.630Z,18.08
2022-11-24T16:19:09.756Z,16.85
2022-11-24T16:21:37.660Z,17.60
2022-11-24T16:24:25.066Z,16.10
2022-11-24T16:26:52.768Z,17.33
2022-11-24T16:29:23.643Z,17.88
2022-11-24T16:31:54.350Z,17.80
2022-11-24T16:34:21.738Z,17.42
2022-11-24T16:36:49.385Z,18.30
2022-11-24T16:39:16.681Z,18.58
2022-11-24T16:41:44.003Z,18.00
2022-11-24T16:44:11.310Z,17.52
2022-11-24T16:46:39.406Z,18.25
2022-11-24T16:49:08.874Z,19.10
2022-11-24T16:51:36.456Z,19.08
2022-11-24T16:54:23.956Z,20.00
2022-11-24T16:56:51.931Z,20.08
2022-11-24T16:59:19.738Z,21.73
2022-11-24T17:01:50.497Z,23.42
2022-11-24T17:04:18.086Z,22.33
2022-11-24T17:06:46.565Z,22.90
2022-11-24T17:09:13.854Z,25.23
2022-11-24T17:11:41.226Z,24.58
2022-11-24T17:14:10.398Z,27.80
2022-11-24T17:16:38.592Z,29.30
2022-11-24T17:19:06.394Z,30.25
2022-11-24T17:21:33.722Z,29.60
2022-11-24T17:24:05.341Z,27.42
2022-11-24T17:26:35.178Z,25.80
2022-11-24T17:29:02.927Z,29.73
2022-11-24T17:31:32.989Z,31.60
2022-11-24T17:34:00.518Z,41.58
2022-11-24T17:36:30.459Z,35.58
2022-11-24T17:39:00.099Z,34.72
2022-11-24T17:41:27.930Z,31.45
2022-11-24T17:43:56.630Z,29.42
2022-11-24T17:46:25.058Z,35.85
2022-11-24T17:48:52.779Z,33.47
2022-11-24T17:51:22.399Z,30.52
2022-11-24T17:53:52.040Z,37.55
2022-11-24T17:56:25.048Z,37.47
2022-11-24T17:58:57.843Z,39.00
2022-11-24T18:01:28.355Z,47.47
2022-11-24T18:03:55.919Z,52.95
2022-11-24T18:06:26.125Z,53.85
2022-11-24T18:08:55.243Z,53.88
2022-11-24T18:11:31.459Z,52.10
2022-11-24T18:14:02.642Z,49.78
2022-11-24T18:16:35.228Z,43.73
2022-11-24T18:19:09.780Z,39.92
2022-11-24T18:21:41.653Z,42.70
2022-11-24T18:24:11.108Z,38.63
2022-11-24T18:26:40.182Z,29.60
2022-11-24T18:29:08.017Z,25.08
2022-11-24T18:31:36.657Z,31.83
2022-11-24T18:34:05.966Z,44.10
2022-11-24T18:36:35.039Z,54.80
2022-11-24T18:39:04.889Z,48.40
2022-11-24T18:41:32.679Z,39.60
2022-11-24T18:44:03.068Z,31.05
2022-11-24T18:46:30.568Z,28.13
2022-11-24T18:48:57.904Z,28.65
2022-11-24T18:51:25.453Z,29.55
2022-11-24T18:53:59.986Z,32.47
2022-11-24T18:56:27.597Z,31.80
2022-11-24T18:58:56.992Z,30.38
2022-11-24T19:01:27.203Z,37.28
2022-11-24T19:03:56.971Z,37.78
2022-11-24T19:06:35.611Z,35.25
2022-11-24T19:09:08.194Z,36.47
2022-11-24T19:11:38.105Z,51.78
2022-11-24T19:14:08.268Z,54.03
2022-11-24T19:16:36.332Z,51.90
2022-11-24T19:19:04.466Z,46.45
2022-11-24T19:21:33.847Z,50.10
2022-11-24T19:24:04.865Z,52.20
2022-11-24T19:29:03.782Z,43.47
2022-11-24T19:31:31.357Z,54.78
2022-11-24T19:33:59.865Z,37.83
2022-11-24T19:36:27.730Z,34.08
2022-11-24T19:38:57.199Z,33.40
2022-11-24T19:41:30.199Z,24.98
2022-11-24T19:43:58.730Z,20.55
2022-11-24T19:46:30.037Z,20.38
2022-11-24T19:49:02.245Z,21.52
2022-11-24T19:51:31.851Z,21.65
2022-11-24T19:54:01.541Z,20.33
2022-11-24T19:56:31.780Z,19.90
2022-11-24T19:58:59.656Z,20.33
2022-11-24T20:01:29.644Z,23.08
2022-11-24T20:03:59.572Z,35.20
2022-11-24T20:06:29.014Z,29.55
2022-11-24T20:09:17.979Z,33.13
2022-11-24T20:11:46.247Z,28.85
2022-11-24T20:14:15.074Z,46.03
2022-11-24T20:16:42.414Z,35.38
2022-11-24T20:19:11.871Z,29.63
2022-11-24T20:21:41.480Z,30.67
2022-11-24T20:24:13.144Z,23.88
2022-11-24T20:26:44.341Z,21.23
2022-11-24T20:29:13.795Z,22.15
2022-11-24T20:31:47.358Z,19.73
2022-11-24T20:34:16.199Z,18.90
2022-11-24T20:36:45.233Z,20.63
2022-11-24T20:39:16.290Z,19.05
2022-11-24T20:42:03.935Z,18.23
2022-11-24T20:44:31.753Z,19.45
2022-11-24T20:47:00.269Z,23.38
2022-11-24T20:49:28.271Z,31.98
2022-11-24T20:51:57.092Z,35.28
2022-11-24T20:54:24.603Z,42.10
2022-11-24T20:56:51.927Z,36.13
2022-11-24T20:59:23.099Z,35.78
2022-11-24T21:01:51.699Z,31.38
2022-11-24T21:04:22.581Z,28.48
2022-11-24T21:06:49.938Z,25.70
2022-11-24T21:09:18.369Z,26.75
2022-11-24T21:11:46.055Z,29.35
2022-11-24T21:14:14.433Z,28.00
2022-11-24T21:16:42.804Z,29.55
2022-11-24T21:19:13.803Z,29.25
2022-11-24T21:21:42.922Z,30.10
2022-11-24T21:24:18.514Z,30.02
2022-11-24T21:26:50.418Z,28.45
2022-11-24T21:31:47.127Z,19.55
2022-11-24T21:34:16.663Z,19.52
2022-11-24T21:36:45.165Z,19.80
2022-11-24T21:42:35.247Z,17.90
2022-11-24T21:45:02.600Z,17.92
2022-11-24T21:47:31.405Z,17.90
2022-11-24T21:49:59.146Z,19.48
2022-11-24T21:52:26.841Z,20.38
2022-11-24T21:54:54.079Z,20.50
2022-11-24T21:57:23.031Z,22.52
2022-11-24T21:59:50.754Z,20.55
2022-11-24T22:02:18.198Z,21.58
2022-11-24T22:04:45.958Z,23.33
2022-11-24T22:07:14.405Z,21.55
2022-11-24T22:09:42.258Z,22.30
2022-11-24T22:12:09.618Z,21.45
2022-11-24T22:14:40.314Z,21.42
2022-11-24T22:17:08.542Z,21.48
2022-11-24T22:19:36.298Z,21.17
2022-11-24T22:22:03.614Z,21.40
2022-11-24T22:24:30.912Z,20.60
2022-11-24T22:26:58.183Z,21.15
2022-11-24T22:29:25.623Z,21.98
2022-11-24T22:31:53.298Z,20.73
2022-11-24T22:34:20.615Z,21.23
2022-11-24T22:36:48.261Z,21.90
2022-11-24T22:42:37.131Z,21.80
2022-11-24T22:45:24.665Z,22.08
2022-11-24T22:47:55.500Z,21.02
2022-11-24T22:50:22.831Z,21.60
2022-11-24T22:52:51.339Z,23.48
2022-11-24T22:55:19.367Z,24.17
2022-11-24T22:57:48.420Z,20.98
2022-11-24T23:00:16.604Z,20.08
